Salton City, California
Current Conditions -  °F | °C
As of 11:53 PM on Sunday 21 Dec 2014 (Local Time) from KPSP Reporting Station
Clear Clear  
Wind Chill: 55°   Ceiling: Unl
Heat Index: 55°   Visibility: 10mi
Dew Point: 47°   Wind: 5mph
Humidity: 74%   Direction: 330°NNW
Pressure: 30.05"   Gusts: NA
Location:  33.69°N, 116.53°W
Report Text: KPSP 220753Z 33004KT 10SM CLR 13/08 A3005 RMK AO2 SLP176 T01280083 402060083
Loading
Personal Weather Stations






























Interactive Weather Map New forecast layout! Learn more

10-Day Weather Forecast

Advertisements
Track Severe Weather on mobile